createdAt,value
2023-04-26T00:00:49.852Z,5.68
2023-04-26T00:03:16.655Z,5.47
2023-04-26T00:05:43.536Z,5.15
2023-04-26T00:08:10.411Z,6.15
2023-04-26T00:10:37.176Z,5.55
2023-04-26T00:13:03.973Z,6.28
2023-04-26T00:15:30.629Z,5.68
2023-04-26T00:17:57.409Z,5.80
2023-04-26T00:20:24.174Z,6.15
2023-04-26T00:22:50.802Z,5.68
2023-04-26T00:25:17.542Z,6.10
2023-04-26T00:27:44.190Z,5.57
2023-04-26T00:30:11.311Z,6.15
2023-04-26T00:32:38.003Z,6.10
2023-04-26T00:35:06.642Z,6.25
2023-04-26T00:37:33.263Z,7.03
2023-04-26T00:39:59.934Z,6.38
2023-04-26T00:42:27.477Z,6.28
2023-04-26T00:44:57.549Z,6.75
2023-04-26T00:47:26.030Z,6.10
2023-04-26T00:49:54.333Z,6.50
2023-04-26T00:52:21.982Z,6.43
2023-04-26T00:54:52.083Z,6.60
2023-04-26T00:57:18.720Z,6.70
2023-04-26T00:59:45.444Z,7.28
2023-04-26T01:02:12.241Z,6.18
2023-04-26T01:04:40.261Z,7.63
2023-04-26T01:07:06.966Z,7.03
2023-04-26T01:09:33.818Z,6.75
2023-04-26T01:12:01.289Z,7.20
2023-04-26T01:14:28.776Z,7.50
2023-04-26T01:16:57.559Z,7.95
2023-04-26T01:19:25.795Z,7.00
2023-04-26T01:21:52.495Z,7.00
2023-04-26T01:24:19.165Z,7.28
2023-04-26T01:26:46.684Z,7.30
2023-04-26T01:29:20.739Z,7.63
2023-04-26T01:31:48.291Z,7.32
2023-04-26T01:34:15.308Z,6.97
2023-04-26T01:36:42.548Z,7.07
2023-04-26T01:39:09.678Z,7.28
2023-04-26T01:41:36.748Z,7.45
2023-04-26T01:44:03.589Z,7.65
2023-04-26T01:46:30.243Z,6.13
2023-04-26T01:48:57.404Z,7.10
2023-04-26T01:51:24.080Z,7.45
2023-04-26T01:53:50.934Z,7.13
2023-04-26T01:56:18.368Z,7.20
2023-04-26T01:58:45.144Z,7.53
2023-04-26T02:01:12.196Z,6.75
2023-04-26T02:03:39.008Z,7.78
2023-04-26T02:06:06.094Z,6.75
2023-04-26T02:08:32.900Z,7.22
2023-04-26T02:10:59.612Z,7.28
2023-04-26T02:13:28.104Z,7.72
2023-04-26T02:15:54.946Z,7.22
2023-04-26T02:18:22.196Z,6.75
2023-04-26T02:20:49.205Z,7.75
2023-04-26T02:23:15.962Z,7.43
2023-04-26T02:25:45.864Z,8.38
2023-04-26T02:30:39.109Z,7.95
2023-04-26T02:33:05.985Z,7.80
2023-04-26T02:35:32.693Z,7.47
2023-04-26T02:37:59.348Z,8.13
2023-04-26T02:40:25.994Z,8.73
2023-04-26T02:42:52.583Z,8.65
2023-04-26T02:45:19.384Z,8.40
2023-04-26T02:47:46.016Z,8.50
2023-04-26T02:50:12.649Z,8.15
2023-04-26T02:52:39.330Z,8.38
2023-04-26T02:55:06.803Z,8.30
2023-04-26T02:57:36.639Z,8.25
2023-04-26T03:00:06.405Z,9.43
2023-04-26T03:02:33.521Z,9.25
2023-04-26T03:05:00.453Z,8.32
2023-04-26T03:07:27.107Z,8.50
2023-04-26T03:09:53.680Z,8.90
2023-04-26T03:12:20.351Z,9.20
2023-04-26T03:14:47.070Z,8.55
2023-04-26T03:17:13.769Z,8.18
2023-04-26T03:19:40.516Z,8.80
2023-04-26T03:22:07.439Z,9.65
2023-04-26T03:24:34.058Z,8.73
2023-04-26T03:27:00.675Z,9.07
2023-04-26T03:29:27.369Z,9.40
2023-04-26T03:31:54.192Z,8.45
2023-04-26T03:34:20.880Z,7.35
2023-04-26T03:36:47.686Z,9.25
2023-04-26T03:39:14.356Z,9.15
2023-04-26T03:41:41.265Z,6.82
2023-04-26T03:44:08.054Z,9.10
2023-04-26T03:46:34.697Z,7.97
2023-04-26T03:49:04.518Z,8.38
2023-04-26T03:51:31.463Z,8.32
2023-04-26T03:53:59.052Z,8.73
2023-04-26T03:56:25.802Z,8.73
2023-04-26T03:58:52.580Z,9.10
2023-04-26T04:01:20.388Z,8.70
2023-04-26T04:03:47.315Z,9.23
2023-04-26T04:06:14.196Z,8.52
2023-04-26T04:08:40.994Z,8.75
2023-04-26T04:11:07.659Z,9.50
2023-04-26T04:13:34.309Z,9.40
2023-04-26T04:16:00.954Z,8.23
2023-04-26T04:18:27.723Z,9.30
2023-04-26T04:20:54.471Z,9.02
2023-04-26T04:23:21.574Z,8.80
2023-04-26T04:25:49.266Z,8.10
2023-04-26T04:28:16.098Z,8.70
2023-04-26T04:30:44.220Z,8.68
2023-04-26T04:33:10.877Z,8.55
2023-04-26T04:35:37.685Z,7.55
2023-04-26T04:38:04.408Z,7.68
2023-04-26T04:40:31.444Z,7.20
2023-04-26T04:42:58.211Z,7.50
2023-04-26T04:45:24.844Z,7.05
2023-04-26T04:47:54.388Z,7.47
2023-04-26T04:50:21.840Z,7.07
2023-04-26T04:52:48.492Z,7.22
2023-04-26T04:55:15.139Z,7.60
2023-04-26T04:57:44.638Z,7.25
2023-04-26T05:00:15.830Z,7.97
2023-04-26T05:02:43.135Z,6.90
2023-04-26T05:05:11.242Z,6.43
2023-04-26T05:07:38.100Z,7.30
2023-04-26T05:10:05.128Z,7.60
2023-04-26T05:12:31.889Z,7.43
2023-04-26T05:14:58.470Z,7.00
2023-04-26T05:17:25.261Z,6.82
2023-04-26T05:19:53.032Z,6.93
2023-04-26T05:22:21.254Z,6.75
2023-04-26T05:24:48.671Z,5.57
2023-04-26T05:27:15.536Z,6.18
2023-04-26T05:29:43.122Z,6.53
2023-04-26T05:32:09.831Z,6.95
2023-04-26T05:34:37.472Z,5.97
2023-04-26T05:37:04.191Z,6.45
2023-04-26T05:39:31.936Z,7.15
2023-04-26T05:41:58.623Z,6.65
2023-04-26T05:44:25.452Z,6.00
2023-04-26T05:46:52.086Z,6.38
2023-04-26T05:49:18.784Z,6.13
2023-04-26T05:51:45.395Z,6.70
2023-04-26T05:54:12.140Z,6.38
2023-04-26T05:56:38.799Z,6.05
2023-04-26T05:59:06.553Z,6.20
2023-04-26T06:01:33.233Z,6.95
2023-04-26T06:04:01.189Z,6.28
2023-04-26T06:06:28.704Z,6.97
2023-04-26T06:08:55.725Z,6.43
2023-04-26T06:11:22.549Z,6.20
2023-04-26T06:13:49.327Z,5.80
2023-04-26T06:16:16.671Z,6.05
2023-04-26T06:18:43.851Z,6.63
2023-04-26T06:21:10.748Z,6.68
2023-04-26T06:23:37.392Z,7.47
2023-04-26T06:26:04.155Z,6.93
2023-04-26T06:28:31.168Z,6.70
2023-04-26T06:30:57.937Z,6.28
2023-04-26T06:33:24.619Z,6.65
2023-04-26T06:35:52.459Z,6.47
2023-04-26T06:38:19.054Z,6.38
2023-04-26T06:40:45.669Z,7.18
2023-04-26T06:43:12.951Z,7.03
2023-04-26T06:45:40.954Z,6.75
2023-04-26T06:48:08.524Z,6.10
2023-04-26T06:50:39.344Z,6.40
2023-04-26T06:53:06.239Z,5.40
2023-04-26T06:55:33.758Z,5.90
2023-04-26T06:58:00.542Z,5.20
2023-04-26T07:00:28.420Z,3.92
2023-04-26T07:02:55.206Z,3.38
2023-04-26T07:05:25.935Z,3.03
2023-04-26T07:07:52.672Z,3.58
2023-04-26T07:10:21.082Z,3.60
2023-04-26T07:12:48.560Z,3.50
2023-04-26T07:15:15.662Z,3.70
2023-04-26T07:17:42.236Z,4.75
2023-04-26T07:20:10.474Z,4.75
2023-04-26T07:22:37.148Z,4.65
2023-04-26T07:25:05.064Z,3.85
2023-04-26T07:27:32.079Z,4.25
2023-04-26T07:29:58.888Z,4.57
2023-04-26T07:32:25.629Z,3.95
2023-04-26T07:34:52.392Z,3.65
2023-04-26T07:37:19.131Z,3.97
2023-04-26T07:39:45.722Z,4.20
2023-04-26T07:42:12.424Z,4.43
2023-04-26T07:44:41.893Z,4.22
2023-04-26T07:47:14.621Z,3.97
2023-04-26T07:49:41.482Z,3.58
2023-04-26T07:52:11.118Z,4.00
2023-04-26T07:54:38.360Z,3.90
2023-04-26T07:57:04.948Z,3.60
2023-04-26T07:59:31.955Z,3.97
2023-04-26T08:01:58.563Z,3.97
2023-04-26T08:04:35.415Z,4.05
2023-04-26T08:07:02.838Z,3.47
2023-04-26T08:09:30.928Z,3.75
2023-04-26T08:11:58.023Z,3.50
2023-04-26T08:14:25.328Z,3.30
2023-04-26T08:16:52.100Z,3.80
2023-04-26T08:19:18.887Z,2.50
2023-04-26T08:21:45.507Z,3.13
2023-04-26T08:24:12.118Z,3.03
2023-04-26T08:26:38.833Z,3.42
2023-04-26T08:29:06.116Z,4.28
2023-04-26T08:31:32.765Z,2.90
2023-04-26T08:33:59.404Z,3.40
2023-04-26T08:36:26.955Z,3.05
2023-04-26T08:38:53.598Z,2.70
2023-04-26T08:41:24.707Z,2.60
2023-04-26T08:43:52.142Z,2.85
2023-04-26T08:46:21.040Z,2.70
2023-04-26T08:49:07.034Z,2.63
2023-04-26T08:51:34.772Z,3.88
2023-04-26T08:54:04.137Z,2.30
2023-04-26T08:56:32.980Z,2.78
2023-04-26T08:59:01.301Z,2.75
2023-04-26T09:01:30.009Z,2.70
2023-04-26T09:03:58.439Z,2.90
2023-04-26T09:06:27.463Z,3.00
2023-04-26T09:08:56.085Z,2.88
2023-04-26T09:11:22.950Z,2.00
2023-04-26T09:13:49.661Z,2.28
2023-04-26T09:16:17.093Z,2.30
2023-04-26T09:18:54.918Z,2.58
2023-04-26T09:21:21.734Z,2.70
2023-04-26T09:24:04.880Z,2.85
2023-04-26T09:26:32.481Z,3.22
2023-04-26T09:29:19.014Z,3.60
2023-04-26T09:31:49.808Z,3.35
2023-04-26T09:34:16.887Z,3.20
2023-04-26T09:36:51.331Z,3.22
2023-04-26T09:39:38.684Z,3.30
2023-04-26T09:42:06.136Z,3.20
2023-04-26T09:44:33.152Z,3.30
2023-04-26T09:47:02.593Z,3.72
2023-04-26T09:49:44.778Z,3.78
2023-04-26T09:52:11.423Z,3.88
2023-04-26T09:54:41.497Z,3.33
2023-04-26T09:57:08.131Z,3.40
2023-04-26T09:59:47.512Z,3.58
2023-04-26T10:02:35.293Z,4.15
2023-04-26T10:05:03.093Z,4.75
2023-04-26T10:07:30.867Z,3.38
2023-04-26T10:09:58.423Z,4.00
2023-04-26T10:12:25.025Z,3.67
2023-04-26T10:14:53.286Z,3.65
2023-04-26T10:17:21.122Z,3.45
2023-04-26T10:19:51.684Z,3.00
2023-04-26T10:22:23.854Z,3.75
2023-04-26T10:24:52.701Z,3.90
2023-04-26T10:27:45.278Z,3.88
2023-04-26T10:30:14.074Z,3.75
2023-04-26T10:32:56.122Z,4.10
2023-04-26T10:35:27.280Z,3.83
2023-04-26T10:37:59.720Z,3.60
2023-04-26T10:40:28.375Z,3.60
2023-04-26T10:43:10.278Z,3.70
2023-04-26T10:45:37.729Z,4.20
2023-04-26T10:48:20.247Z,4.15
2023-04-26T10:51:13.212Z,3.70
2023-04-26T10:53:46.356Z,3.50
2023-04-26T10:56:33.698Z,3.50
2023-04-26T10:59:33.254Z,3.90
2023-04-26T11:02:00.978Z,3.40
2023-04-26T11:04:53.399Z,3.70
2023-04-26T11:07:39.055Z,3.67
2023-04-26T11:10:22.882Z,3.35
2023-04-26T11:13:01.028Z,3.30
2023-04-26T11:15:27.901Z,3.80
2023-04-26T11:17:54.564Z,3.40
2023-04-26T11:20:21.258Z,4.03
2023-04-26T11:22:47.913Z,3.15
2023-04-26T11:25:14.638Z,3.00
2023-04-26T11:27:43.498Z,3.75
2023-04-26T11:30:10.943Z,2.85
2023-04-26T11:32:37.733Z,3.30
2023-04-26T11:35:05.054Z,3.70
2023-04-26T11:37:33.764Z,2.95
2023-04-26T11:40:00.496Z,2.88
2023-04-26T11:42:27.242Z,3.05
2023-04-26T11:44:54.682Z,3.78
2023-04-26T11:47:22.856Z,3.10
2023-04-26T11:49:49.689Z,3.58
2023-04-26T11:52:17.031Z,3.13
2023-04-26T11:54:44.485Z,2.80
2023-04-26T11:57:17.321Z,3.05
2023-04-26T11:59:46.019Z,3.00
2023-04-26T12:02:12.878Z,2.75
2023-04-26T12:04:41.407Z,3.40
2023-04-26T12:07:19.309Z,2.60
2023-04-26T12:09:46.186Z,3.60
2023-04-26T12:12:12.793Z,3.00
2023-04-26T12:14:40.634Z,2.50
2023-04-26T12:17:08.168Z,3.05
2023-04-26T12:19:39.728Z,2.97
2023-04-26T12:22:08.359Z,3.13
2023-04-26T12:24:37.007Z,4.47
2023-04-26T12:27:06.936Z,2.63
2023-04-26T12:29:35.121Z,2.97
2023-04-26T12:32:02.738Z,2.90
2023-04-26T12:34:29.825Z,2.97
2023-04-26T12:36:56.649Z,2.80
2023-04-26T12:39:23.397Z,3.33
2023-04-26T12:41:50.041Z,2.97
2023-04-26T12:44:17.288Z,3.03
2023-04-26T12:46:45.988Z,3.10
2023-04-26T12:49:12.786Z,2.95
2023-04-26T12:51:39.558Z,3.33
2023-04-26T12:54:06.205Z,2.80
2023-04-26T12:56:35.142Z,3.28
2023-04-26T12:59:01.901Z,2.80
2023-04-26T13:01:28.545Z,3.30
2023-04-26T13:03:57.242Z,3.03
2023-04-26T13:06:24.479Z,3.10
2023-04-26T13:08:51.221Z,2.70
2023-04-26T13:11:18.125Z,2.85
2023-04-26T13:13:45.291Z,2.90
2023-04-26T13:16:13.205Z,3.05
2023-04-26T13:18:40.701Z,2.97
2023-04-26T13:21:07.790Z,2.90
2023-04-26T13:23:34.486Z,2.70
2023-04-26T13:26:01.175Z,2.92
2023-04-26T13:28:27.859Z,2.70
2023-04-26T13:30:55.913Z,2.60
2023-04-26T13:33:22.832Z,3.05
2023-04-26T13:35:49.499Z,2.80
2023-04-26T13:38:16.935Z,2.58
2023-04-26T13:40:44.366Z,3.10
2023-04-26T13:43:11.257Z,2.80
2023-04-26T13:45:39.694Z,2.50
2023-04-26T13:48:06.634Z,2.70
2023-04-26T13:50:33.332Z,2.70
2023-04-26T13:53:00.203Z,2.92
2023-04-26T13:55:27.192Z,2.72
2023-04-26T13:57:53.870Z,3.10
2023-04-26T14:00:20.984Z,3.13
2023-04-26T14:02:48.212Z,2.90
2023-04-26T14:05:17.743Z,3.08
2023-04-26T14:07:44.514Z,2.95
2023-04-26T14:10:12.559Z,2.67
2023-04-26T14:12:39.828Z,2.83
2023-04-26T14:15:08.405Z,2.47
2023-04-26T14:17:35.090Z,3.10
2023-04-26T14:20:01.938Z,2.40
2023-04-26T14:22:28.787Z,2.88
2023-04-26T14:24:55.467Z,2.70
2023-04-26T14:27:22.147Z,2.33
2023-04-26T14:29:48.775Z,2.65
2023-04-26T14:32:15.703Z,2.80
2023-04-26T14:34:43.001Z,2.90
2023-04-26T14:37:10.477Z,2.60
2023-04-26T14:39:37.523Z,2.90
2023-04-26T14:42:04.593Z,2.92
2023-04-26T14:44:32.772Z,2.55
2023-04-26T14:46:59.437Z,2.72
2023-04-26T14:49:26.186Z,2.63
2023-04-26T14:51:53.667Z,2.67
2023-04-26T14:54:21.123Z,3.10
2023-04-26T14:56:48.542Z,2.60
2023-04-26T14:59:15.295Z,2.13
2023-04-26T15:01:45.031Z,2.55
2023-04-26T15:04:11.914Z,2.00
2023-04-26T15:06:39.057Z,2.58
2023-04-26T15:09:09.153Z,2.45
2023-04-26T15:11:36.028Z,2.33
2023-04-26T15:14:02.659Z,2.22
2023-04-26T15:16:29.316Z,2.80
2023-04-26T15:18:56.096Z,2.40
2023-04-26T15:21:22.960Z,2.30
2023-04-26T15:23:52.730Z,2.42
2023-04-26T15:26:19.376Z,3.30
2023-04-26T15:28:46.527Z,2.20
2023-04-26T15:31:13.318Z,2.13
2023-04-26T15:33:39.983Z,2.60
2023-04-26T15:36:07.069Z,2.42
2023-04-26T15:38:35.264Z,2.47
2023-04-26T15:41:02.060Z,2.70
2023-04-26T15:43:28.851Z,2.60
2023-04-26T15:45:55.709Z,2.47
2023-04-26T15:48:24.845Z,2.60
2023-04-26T15:50:53.857Z,2.35
2023-04-26T15:53:21.851Z,2.20
2023-04-26T15:55:48.422Z,2.55
2023-04-26T15:58:15.114Z,2.45
2023-04-26T16:00:42.093Z,2.55
2023-04-26T16:03:08.937Z,2.42
2023-04-26T16:05:35.585Z,2.13
2023-04-26T16:08:03.353Z,2.15
2023-04-26T16:10:29.968Z,2.50
2023-04-26T16:12:57.514Z,2.40
2023-04-26T16:15:24.151Z,2.50
2023-04-26T16:17:50.803Z,3.35
2023-04-26T16:20:17.818Z,2.50
2023-04-26T16:22:45.351Z,2.40
2023-04-26T16:25:13.142Z,2.70
2023-04-26T16:27:39.795Z,2.50
2023-04-26T16:30:07.005Z,3.67
2023-04-26T16:32:34.236Z,2.90
2023-04-26T16:35:01.094Z,3.60
2023-04-26T16:37:27.883Z,3.13
2023-04-26T16:39:56.018Z,2.67
2023-04-26T16:42:22.880Z,2.60
2023-04-26T16:44:49.561Z,2.25
2023-04-26T16:47:16.253Z,2.78
2023-04-26T16:49:42.921Z,2.10
2023-04-26T16:52:09.726Z,2.42
2023-04-26T16:54:36.604Z,2.92
2023-04-26T16:57:04.487Z,2.80
2023-04-26T16:59:31.362Z,2.67
2023-04-26T17:01:58.083Z,2.60
2023-04-26T17:04:26.346Z,2.47
2023-04-26T17:06:53.823Z,2.40
2023-04-26T17:09:20.822Z,2.83
2023-04-26T17:11:47.490Z,2.58
2023-04-26T17:14:17.275Z,3.55
2023-04-26T17:16:44.198Z,2.97
2023-04-26T17:19:11.048Z,2.85
2023-04-26T17:21:37.825Z,3.08
2023-04-26T17:24:04.662Z,3.55
2023-04-26T17:26:32.760Z,2.78
2023-04-26T17:28:59.496Z,2.58
2023-04-26T17:31:26.397Z,2.95
2023-04-26T17:33:53.076Z,3.25
2023-04-26T17:36:20.024Z,2.90
2023-04-26T17:38:48.481Z,2.65
2023-04-26T17:41:18.257Z,2.85
2023-04-26T17:43:45.887Z,3.90
2023-04-26T17:46:12.621Z,4.57
2023-04-26T17:48:39.645Z,6.50
2023-04-26T17:51:06.906Z,3.15
2023-04-26T17:53:33.563Z,2.60
2023-04-26T17:56:00.205Z,3.17
2023-04-26T17:58:27.596Z,7.70
2023-04-26T18:00:54.293Z,3.78
2023-04-26T18:03:21.188Z,4.75
2023-04-26T18:05:48.323Z,8.15
2023-04-26T18:08:14.962Z,15.48
2023-04-26T18:10:41.690Z,7.90
2023-04-26T18:13:08.446Z,16.77
2023-04-26T18:15:35.082Z,6.40
2023-04-26T18:18:05.547Z,9.50
2023-04-26T18:20:32.504Z,4.43
2023-04-26T18:22:59.136Z,7.95
2023-04-26T18:25:25.758Z,7.35
2023-04-26T18:27:52.384Z,9.40
2023-04-26T18:30:19.374Z,4.13
2023-04-26T18:32:46.125Z,5.43
2023-04-26T18:35:12.909Z,6.10
2023-04-26T18:37:39.784Z,3.22
2023-04-26T18:40:07.291Z,3.28
2023-04-26T18:42:33.928Z,3.17
2023-04-26T18:45:02.079Z,2.88
2023-04-26T18:47:28.686Z,2.95
2023-04-26T18:49:55.826Z,2.80
2023-04-26T18:52:22.470Z,2.78
2023-04-26T18:54:49.297Z,2.80
2023-04-26T18:57:18.160Z,3.20
2023-04-26T18:59:44.746Z,3.10
2023-04-26T19:02:11.589Z,3.22
2023-04-26T19:04:38.494Z,3.38
2023-04-26T19:07:05.425Z,3.22
2023-04-26T19:09:39.859Z,3.03
2023-04-26T19:12:17.405Z,3.45
2023-04-26T19:14:44.012Z,3.38
2023-04-26T19:17:11.388Z,3.17
2023-04-26T19:19:38.513Z,3.25
2023-04-26T19:22:05.185Z,4.32
2023-04-26T19:24:31.932Z,3.53
2023-04-26T19:26:58.676Z,3.70
2023-04-26T19:29:25.558Z,3.70
2023-04-26T19:31:52.290Z,4.05
2023-04-26T19:34:18.986Z,3.70
2023-04-26T19:36:45.659Z,3.67
2023-04-26T19:39:12.401Z,3.20
2023-04-26T19:41:39.238Z,4.10
2023-04-26T19:44:08.683Z,3.35
2023-04-26T19:46:35.577Z,3.20
2023-04-26T19:49:02.210Z,3.55
2023-04-26T19:51:28.970Z,3.58
2023-04-26T19:53:55.639Z,4.18
2023-04-26T19:56:24.016Z,3.72
2023-04-26T19:58:50.670Z,3.58
2023-04-26T20:01:17.511Z,3.10
2023-04-26T20:03:46.123Z,3.50
2023-04-26T20:06:14.071Z,3.65
2023-04-26T20:08:41.454Z,5.00
2023-04-26T20:11:14.754Z,4.65
2023-04-26T20:13:42.746Z,4.90
2023-04-26T20:16:09.860Z,4.95
2023-04-26T20:18:37.457Z,4.50
2023-04-26T20:21:05.237Z,3.97
2023-04-26T20:23:32.302Z,4.07
2023-04-26T20:25:59.573Z,3.92
2023-04-26T20:28:27.740Z,3.65
2023-04-26T20:30:54.360Z,3.60
2023-04-26T20:33:22.592Z,3.80
2023-04-26T20:35:49.343Z,3.70
2023-04-26T20:38:16.022Z,3.53
2023-04-26T20:40:42.666Z,3.53
2023-04-26T20:43:12.026Z,3.85
2023-04-26T20:45:40.270Z,3.28
2023-04-26T20:48:08.118Z,5.65
2023-04-26T20:50:36.580Z,4.70
2023-04-26T20:53:04.286Z,6.10
2023-04-26T20:55:33.881Z,5.38
2023-04-26T20:58:00.526Z,4.07
2023-04-26T21:00:28.249Z,5.63
2023-04-26T21:02:54.986Z,10.32
2023-04-26T21:05:24.128Z,8.77
2023-04-26T21:07:50.928Z,6.87
2023-04-26T21:10:17.900Z,6.20
2023-04-26T21:12:44.589Z,7.93
2023-04-26T21:15:11.565Z,13.02
2023-04-26T21:17:40.285Z,7.60
2023-04-26T21:20:07.408Z,7.63
2023-04-26T21:22:34.012Z,7.22
2023-04-26T21:25:00.834Z,6.50
2023-04-26T21:27:27.472Z,5.82
2023-04-26T21:29:54.071Z,6.20
2023-04-26T21:32:22.621Z,5.47
2023-04-26T21:34:49.262Z,4.93
2023-04-26T21:37:16.825Z,4.75
2023-04-26T21:39:46.178Z,4.80
2023-04-26T21:42:12.855Z,4.82
2023-04-26T21:44:39.468Z,4.13
2023-04-26T21:47:06.471Z,4.25
2023-04-26T21:49:36.050Z,4.65
2023-04-26T21:52:04.560Z,4.03
2023-04-26T21:54:31.354Z,4.88
2023-04-26T21:56:57.937Z,5.03
2023-04-26T21:59:24.585Z,4.07
2023-04-26T22:01:52.629Z,4.20
2023-04-26T22:04:19.349Z,4.55
2023-04-26T22:06:46.036Z,4.35
2023-04-26T22:09:13.505Z,4.32
2023-04-26T22:11:40.276Z,4.28
2023-04-26T22:14:06.972Z,4.47
2023-04-26T22:16:33.651Z,4.63
2023-04-26T22:19:00.472Z,4.13
2023-04-26T22:21:28.441Z,4.22
2023-04-26T22:23:55.328Z,4.43
2023-04-26T22:26:21.905Z,4.25
2023-04-26T22:28:48.513Z,4.13
2023-04-26T22:31:15.200Z,4.45
2023-04-26T22:33:41.901Z,4.63
2023-04-26T22:36:08.960Z,4.43
2023-04-26T22:38:35.709Z,5.60
2023-04-26T22:41:04.662Z,4.40
2023-04-26T22:43:31.308Z,4.55
2023-04-26T22:45:57.974Z,4.20
2023-04-26T22:48:24.659Z,4.47
2023-04-26T22:50:51.265Z,4.35
2023-04-26T22:53:18.437Z,4.43
2023-04-26T22:55:45.348Z,4.50
2023-04-26T22:58:12.114Z,4.57
2023-04-26T23:00:39.339Z,4.50
2023-04-26T23:03:06.268Z,4.63
2023-04-26T23:05:35.264Z,4.68
2023-04-26T23:08:01.919Z,4.55
2023-04-26T23:10:28.627Z,4.72
2023-04-26T23:12:55.468Z,5.03
2023-04-26T23:15:22.280Z,4.35
2023-04-26T23:17:49.330Z,4.63
2023-04-26T23:20:19.187Z,4.70
2023-04-26T23:22:46.040Z,4.50
2023-04-26T23:25:12.711Z,4.57
2023-04-26T23:27:39.373Z,4.47
2023-04-26T23:30:07.205Z,5.20
2023-04-26T23:32:33.991Z,4.53
2023-04-26T23:35:00.667Z,4.60
2023-04-26T23:37:27.568Z,4.13
2023-04-26T23:39:54.158Z,4.45
2023-04-26T23:42:21.038Z,4.57
2023-04-26T23:44:47.677Z,4.47
2023-04-26T23:47:14.355Z,4.63
2023-04-26T23:49:41.152Z,4.90
2023-04-26T23:52:07.822Z,5.65
2023-04-26T23:54:34.475Z,4.78
2023-04-26T23:57:01.149Z,4.65
2023-04-26T23:59:27.888Z,5.22
